Time;durP1;ratioP1;P1;durP2;ratioP2;P2;SDS_P1;SDS_P2;PMS_P1;PMS_P2;Temp;Humidity;BMP_temperature;BMP_pressure;BME280_temperature;BME280_humidity;BME280_pressure;Samples;Min_cycle;Max_cycle;Signal;HPM_P1;HPM_P2
2021/08/13 00:00:22;;;;;;;15.07;8.87;;;22.50;69.20;;;;;;5076229;28;20456;-75
2021/08/13 00:02:49;;;;;;;12.23;9.60;;;22.40;69.70;;;;;;5076055;28;20445;-75
2021/08/13 00:05:15;;;;;;;12.63;9.00;;;22.30;69.80;;;;;;5076098;28;20450;-75
2021/08/13 00:07:43;;;;;;;11.27;8.70;;;22.20;70.10;;;;;;5075944;28;20860;-75
2021/08/13 00:10:10;;;;;;;13.53;9.90;;;22.20;70.20;;;;;;5076000;28;20459;-75
2021/08/13 00:12:37;;;;;;;10.27;8.20;;;22.20;70.30;;;;;;5075967;28;20448;-75
2021/08/13 00:15:05;;;;;;;9.33;8.40;;;22.20;70.50;;;;;;5075018;28;20466;-75
2021/08/13 00:17:33;;;;;;;13.10;9.13;;;22.20;70.50;;;;;;5075854;28;20461;-75
2021/08/13 00:19:59;;;;;;;11.33;8.70;;;22.20;70.60;;;;;;5075523;28;20445;-75
2021/08/13 00:22:26;;;;;;;12.13;9.17;;;22.20;70.60;;;;;;5075550;28;20457;-75
2021/08/13 00:24:53;;;;;;;11.40;9.37;;;22.20;70.80;;;;;;5075665;28;20481;-75
2021/08/13 00:27:20;;;;;;;10.10;9.07;;;22.20;71.20;;;;;;5075617;28;20465;-75
2021/08/13 00:29:46;;;;;;;11.53;10.43;;;22.20;71.30;;;;;;5075653;28;20516;-75
2021/08/13 00:32:14;;;;;;;10.07;9.13;;;22.30;71.50;;;;;;5076735;28;20468;-75
2021/08/13 00:34:42;;;;;;;9.27;8.27;;;22.20;71.30;;;;;;5075218;28;20813;-75
2021/08/13 00:37:09;;;;;;;9.83;8.83;;;22.20;71.40;;;;;;5075442;28;20477;-74
2021/08/13 00:39:35;;;;;;;16.23;8.90;;;22.20;71.50;;;;;;5075460;28;20502;-75
2021/08/13 00:42:02;;;;;;;14.60;8.80;;;22.10;71.40;;;;;;5075078;28;20938;-75
2021/08/13 00:44:30;;;;;;;10.23;9.23;;;22.10;71.40;;;;;;5075281;28;20483;-75
2021/08/13 00:46:57;;;;;;;11.00;8.77;;;22.10;71.60;;;;;;5074904;28;21051;-74
2021/08/13 00:49:23;;;;;;;10.30;9.30;;;22.10;71.70;;;;;;5074939;28;20447;-75
2021/08/13 00:51:52;;;;;;;9.00;8.20;;;22.10;71.80;;;;;;5075266;28;20429;-75
2021/08/13 00:54:21;;;;;;;11.20;9.97;;;22.10;71.90;;;;;;5074836;28;20444;-75
2021/08/13 00:56:48;;;;;;;9.77;8.77;;;22.00;71.90;;;;;;5075045;28;20468;-75
2021/08/13 00:59:15;;;;;;;9.13;8.23;;;22.00;71.90;;;;;;5074744;28;20930;-75
2021/08/13 01:01:42;;;;;;;10.90;9.07;;;22.00;72.00;;;;;;5074955;28;20452;-74
2021/08/13 01:04:08;;;;;;;10.60;9.37;;;22.00;72.10;;;;;;5074880;28;20472;-74
2021/08/13 01:06:35;;;;;;;10.17;9.10;;;22.00;72.10;;;;;;5074848;28;20818;-74
2021/08/13 01:09:03;;;;;;;9.53;8.63;;;22.00;72.30;;;;;;5074509;28;20441;-74
2021/08/13 01:11:41;;;;;;;11.20;8.70;;;21.90;72.20;;;;;;5074534;28;20444;-74
2021/08/13 01:14:11;;;;;;;9.80;8.60;;;21.90;72.40;;;;;;5074784;28;20421;-75
2021/08/13 01:16:41;;;;;;;11.67;9.57;;;21.90;72.70;;;;;;5074659;28;20468;-74
2021/08/13 01:19:13;;;;;;;11.10;9.27;;;21.90;72.70;;;;;;5074645;28;20452;-75
2021/08/13 01:21:47;;;;;;;10.90;9.10;;;21.90;72.80;;;;;;5074493;28;20429;-74
2021/08/13 01:24:19;;;;;;;9.63;8.63;;;21.90;72.90;;;;;;5074456;28;20994;-74
2021/08/13 01:26:50;;;;;;;9.77;8.77;;;21.80;72.90;;;;;;5074451;28;20476;-75
2021/08/13 01:29:26;;;;;;;14.60;10.00;;;21.80;73.10;;;;;;5074466;28;20429;-75
2021/08/13 01:32:11;;;;;;;9.50;8.67;;;21.80;73.40;;;;;;5074136;28;20435;-74
2021/08/13 01:34:41;;;;;;;9.90;8.90;;;21.80;73.60;;;;;;5074407;28;20448;-75
2021/08/13 01:37:08;;;;;;;9.47;8.37;;;21.80;74.10;;;;;;5074256;28;20467;-74
2021/08/13 01:39:36;;;;;;;10.13;9.13;;;21.80;74.30;;;;;;5074228;28;20440;-74
2021/08/13 01:42:05;;;;;;;9.77;8.87;;;21.80;74.50;;;;;;5074203;28;20479;-74
2021/08/13 01:44:33;;;;;;;11.53;10.33;;;21.80;74.70;;;;;;5074088;28;20487;-74
2021/08/13 01:47:00;;;;;;;10.80;9.30;;;21.80;74.70;;;;;;5074035;28;20539;-74
2021/08/13 01:49:29;;;;;;;10.30;9.40;;;21.80;75.00;;;;;;5074050;28;20494;-74
2021/08/13 01:51:58;;;;;;;11.70;10.50;;;21.80;75.20;;;;;;5074022;28;20448;-74
2021/08/13 01:54:26;;;;;;;11.93;10.70;;;21.70;75.30;;;;;;5073984;28;20437;-75
2021/08/13 01:56:54;;;;;;;11.17;9.57;;;21.70;75.40;;;;;;5073869;28;20464;-74
2021/08/13 01:59:22;;;;;;;12.00;9.63;;;21.70;75.40;;;;;;5073592;28;20441;-74
2021/08/13 02:01:49;;;;;;;12.00;10.10;;;21.70;75.50;;;;;;5073903;28;20440;-74
2021/08/13 02:04:19;;;;;;;11.40;9.67;;;21.70;75.80;;;;;;5073443;28;20477;-74
2021/08/13 02:06:46;;;;;;;11.53;9.53;;;21.70;75.90;;;;;;5073783;28;20464;-74
2021/08/13 02:09:15;;;;;;;11.57;10.37;;;21.70;76.20;;;;;;5073786;28;20448;-75
2021/08/13 02:11:42;;;;;;;10.23;9.23;;;21.70;76.40;;;;;;5073767;28;20494;-74
2021/08/13 02:14:09;;;;;;;10.50;9.50;;;21.70;76.50;;;;;;5073693;28;20445;-74
2021/08/13 02:16:37;;;;;;;11.00;9.87;;;21.70;76.60;;;;;;5073619;28;20464;-74
2021/08/13 02:19:10;;;;;;;11.70;10.60;;;21.70;76.60;;;;;;5073664;28;20445;-75
2021/08/13 02:21:39;;;;;;;13.67;10.73;;;21.70;76.50;;;;;;5073516;28;20434;-75
2021/08/13 02:24:06;;;;;;;16.20;12.00;;;21.70;76.30;;;;;;5073508;28;20461;-74
2021/08/13 02:26:34;;;;;;;15.53;12.10;;;21.70;76.00;;;;;;5073493;28;20468;-74
2021/08/13 02:29:02;;;;;;;12.70;11.40;;;21.70;75.90;;;;;;5073558;28;20467;-74
2021/08/13 02:31:29;;;;;;;19.63;12.23;;;21.70;76.00;;;;;;5073193;28;20927;-74
2021/08/13 02:33:56;;;;;;;12.80;11.50;;;21.60;75.80;;;;;;5073158;28;20953;-74
2021/08/13 02:36:37;;;;;;;14.13;12.73;;;21.60;75.80;;;;;;5072928;28;20457;-74
2021/08/13 02:39:10;;;;;;;13.73;12.23;;;21.60;75.70;;;;;;5073179;28;20926;-74
2021/08/13 02:41:40;;;;;;;14.30;11.90;;;21.60;75.70;;;;;;5073467;28;20428;-74
2021/08/13 02:44:09;;;;;;;13.10;11.70;;;21.50;75.70;;;;;;5073362;28;20465;-74
2021/08/13 02:46:43;;;;;;;12.90;11.60;;;21.50;75.70;;;;;;5072967;28;20467;-74
2021/08/13 02:49:11;;;;;;;12.70;11.30;;;21.50;75.90;;;;;;5073410;28;20432;-74
2021/08/13 02:51:41;;;;;;;12.40;10.80;;;21.50;76.60;;;;;;5073322;28;20452;-74
2021/08/13 02:54:14;;;;;;;13.40;12.00;;;21.40;75.80;;;;;;5073322;28;20475;-74
2021/08/13 02:56:44;;;;;;;14.37;10.60;;;21.40;76.00;;;;;;5073252;28;20468;-74
2021/08/13 02:59:15;;;;;;;13.33;10.83;;;21.30;76.10;;;;;;5073272;28;20441;-74
2021/08/13 03:01:45;;;;;;;12.70;10.77;;;21.30;76.20;;;;;;5073267;28;20433;-74
2021/08/13 03:04:14;;;;;;;12.57;11.17;;;21.30;76.30;;;;;;5073145;28;20483;-74
2021/08/13 03:06:42;;;;;;;12.33;11.13;;;21.30;76.40;;;;;;5073116;28;20461;-75
2021/08/13 03:09:10;;;;;;;14.03;11.83;;;21.30;76.60;;;;;;5073127;28;20440;-74
2021/08/13 03:11:40;;;;;;;14.37;11.20;;;21.30;76.70;;;;;;5072821;28;20927;-75
2021/08/13 03:14:10;;;;;;;13.03;11.60;;;21.20;76.60;;;;;;5072849;28;20914;-74
2021/08/13 03:16:37;;;;;;;12.80;11.60;;;21.20;76.70;;;;;;5073040;28;20468;-74
2021/08/13 03:19:06;;;;;;;14.43;12.67;;;21.20;76.60;;;;;;5073053;28;20444;-74
2021/08/13 03:21:33;;;;;;;13.67;12.27;;;21.20;76.70;;;;;;5073029;28;20447;-74
2021/08/13 03:24:00;;;;;;;12.40;11.30;;;21.20;76.80;;;;;;5072954;28;20445;-74
2021/08/13 03:26:27;;;;;;;14.03;12.57;;;21.10;76.80;;;;;;5072938;28;20464;-75
2021/08/13 03:28:54;;;;;;;13.97;12.30;;;21.00;76.80;;;;;;5072929;28;20451;-74
2021/08/13 03:31:37;;;;;;;13.63;12.23;;;20.90;77.20;;;;;;5072643;28;20540;-74
2021/08/13 03:34:05;;;;;;;15.33;12.80;;;20.80;77.90;;;;;;5072918;28;20443;-74
2021/08/13 03:36:32;;;;;;;17.60;13.47;;;20.70;78.00;;;;;;5072860;28;20465;-74
2021/08/13 03:38:59;;;;;;;13.77;12.03;;;20.60;78.50;;;;;;5072960;28;20429;-74
2021/08/13 03:41:26;;;;;;;15.40;12.27;;;20.60;79.10;;;;;;5072561;28;20440;-74
2021/08/13 03:43:52;;;;;;;13.03;11.80;;;20.60;79.60;;;;;;5072750;28;20441;-74
2021/08/13 03:46:19;;;;;;;14.13;12.77;;;20.60;79.60;;;;;;5072395;28;20837;-74
2021/08/13 03:48:47;;;;;;;14.93;13.37;;;20.70;79.60;;;;;;5073497;28;20447;-74
2021/08/13 03:51:14;;;;;;;13.60;12.30;;;20.70;79.40;;;;;;5076361;28;20440;-74
2021/08/13 03:53:41;;;;;;;12.60;11.50;;;20.70;79.40;;;;;;5076322;28;20451;-74
2021/08/13 03:56:08;;;;;;;14.50;13.07;;;20.80;79.30;;;;;;5076221;28;20461;-74
2021/08/13 03:58:34;;;;;;;13.80;12.13;;;20.80;79.10;;;;;;5076251;28;20444;-74
2021/08/13 04:01:01;;;;;;;16.17;14.57;;;20.80;78.90;;;;;;5076220;28;20447;-74
2021/08/13 04:03:28;;;;;;;13.63;12.03;;;20.80;78.70;;;;;;5075858;28;20440;-74
2021/08/13 04:05:56;;;;;;;12.93;11.47;;;20.70;78.50;;;;;;5075974;28;20484;-74
2021/08/13 04:08:22;;;;;;;13.17;11.83;;;20.70;78.40;;;;;;5076084;28;20456;-74
2021/08/13 04:10:49;;;;;;;14.40;12.70;;;20.70;78.40;;;;;;5076038;28;20449;-74
2021/08/13 04:13:16;;;;;;;14.30;12.77;;;20.70;78.40;;;;;;5075963;28;20451;-74
2021/08/13 04:15:44;;;;;;;13.13;11.83;;;20.70;78.40;;;;;;5075816;28;20445;-74
2021/08/13 04:18:11;;;;;;;14.00;12.60;;;20.70;78.40;;;;;;5075872;28;20448;-74
2021/08/13 04:20:38;;;;;;;13.90;12.43;;;20.70;78.40;;;;;;5075835;28;20459;-74
2021/08/13 04:23:06;;;;;;;14.43;13.03;;;20.70;78.20;;;;;;5075474;28;20456;-74
2021/08/13 04:25:33;;;;;;;15.83;13.57;;;20.70;78.20;;;;;;5075701;28;20483;-74
2021/08/13 04:28:00;;;;;;;17.00;15.20;;;20.80;78.60;;;;;;5075719;28;20444;-74
2021/08/13 04:30:26;;;;;;;15.97;14.37;;;20.80;78.70;;;;;;5075640;28;20448;-74
2021/08/13 04:32:53;;;;;;;17.23;14.00;;;20.80;78.90;;;;;;5075328;28;20447;-74
2021/08/13 04:35:20;;;;;;;15.97;14.33;;;20.80;79.30;;;;;;5075571;28;20440;-74
2021/08/13 04:37:47;;;;;;;15.83;14.03;;;20.80;79.50;;;;;;5075484;28;20468;-74
2021/08/13 04:40:15;;;;;;;15.23;13.10;;;20.70;79.40;;;;;;5075490;28;20444;-74
2021/08/13 04:42:42;;;;;;;15.73;13.40;;;20.70;79.20;;;;;;5075469;28;20455;-74
2021/08/13 04:45:09;;;;;;;14.77;13.37;;;20.70;79.20;;;;;;5075323;28;20479;-74
2021/08/13 04:47:36;;;;;;;15.43;13.90;;;20.70;79.10;;;;;;5075279;28;20826;-74
2021/08/13 04:50:03;;;;;;;19.00;13.80;;;20.70;79.10;;;;;;5075263;28;20446;-74
2021/08/13 04:52:30;;;;;;;17.53;15.70;;;20.70;79.20;;;;;;5075230;28;20448;-74
2021/08/13 04:54:57;;;;;;;17.50;15.80;;;20.70;79.50;;;;;;5075182;28;20444;-74
2021/08/13 04:57:25;;;;;;;18.40;16.57;;;20.80;79.80;;;;;;5075041;28;20472;-74
2021/08/13 04:59:51;;;;;;;18.47;16.17;;;20.80;79.90;;;;;;5074696;28;20808;-74
2021/08/13 05:02:22;;;;;;;18.23;16.23;;;20.80;80.00;;;;;;5075002;28;20456;-74
2021/08/13 05:04:48;;;;;;;19.00;15.60;;;20.80;80.10;;;;;;5074982;28;20461;-74
2021/08/13 05:07:15;;;;;;;16.10;14.20;;;20.80;80.90;;;;;;5074847;28;20465;-74
2021/08/13 05:09:42;;;;;;;16.37;14.67;;;20.80;80.40;;;;;;5074908;28;20432;-74
2021/08/13 05:12:09;;;;;;;20.97;16.20;;;20.90;80.60;;;;;;5074570;28;20938;-74
2021/08/13 05:14:37;;;;;;;19.07;14.90;;;20.90;80.60;;;;;;5074500;28;20930;-74
2021/08/13 05:17:04;;;;;;;15.03;13.43;;;21.00;81.90;;;;;;5074734;28;20468;-74
2021/08/13 05:19:31;;;;;;;18.93;14.77;;;21.00;81.40;;;;;;5074753;28;20820;-74
2021/08/13 05:21:57;;;;;;;17.30;13.63;;;21.10;82.00;;;;;;5074629;28;20460;-74
2021/08/13 05:24:24;;;;;;;15.93;14.33;;;21.20;82.00;;;;;;5074519;28;20428;-74
2021/08/13 05:26:51;;;;;;;15.97;13.20;;;21.20;81.60;;;;;;5074457;28;20465;-75
2021/08/13 05:29:17;;;;;;;17.67;13.33;;;21.30;82.40;;;;;;5074503;28;20519;-75
2021/08/13 05:31:45;;;;;;;21.23;13.07;;;21.30;81.80;;;;;;5074378;28;20448;-74
2021/08/13 05:34:12;;;;;;;18.90;14.07;;;21.30;81.80;;;;;;5074088;28;20833;-74
2021/08/13 05:36:39;;;;;;;19.10;12.57;;;21.30;82.30;;;;;;5074294;28;20456;-74
2021/08/13 05:39:05;;;;;;;18.00;13.00;;;21.30;83.10;;;;;;5074371;28;20452;-74
2021/08/13 05:41:33;;;;;;;19.93;13.73;;;21.40;83.50;;;;;;5074772;28;20436;-75
2021/08/13 05:44:00;;;;;;;20.67;13.37;;;21.40;83.90;;;;;;5074343;28;20918;-75
2021/08/13 05:46:26;;;;;;;19.47;12.90;;;21.40;84.50;;;;;;5074038;28;20517;-75
2021/08/13 05:48:55;;;;;;;17.00;12.63;;;21.40;83.90;;;;;;5073867;28;20447;-75
2021/08/13 05:51:21;;;;;;;17.80;13.53;;;21.40;83.90;;;;;;5073858;28;20949;-75
2021/08/13 05:53:48;;;;;;;22.73;13.83;;;21.40;84.10;;;;;;5074048;28;20445;-75
2021/08/13 05:56:15;;;;;;;18.23;13.47;;;21.50;84.50;;;;;;5073916;28;20460;-75
2021/08/13 05:58:42;;;;;;;20.90;13.87;;;21.60;84.80;;;;;;5074008;28;20437;-75
2021/08/13 06:01:08;;;;;;;19.00;14.80;;;21.60;84.60;;;;;;5074044;28;20452;-75
2021/08/13 06:03:35;;;;;;;19.03;16.00;;;21.70;84.70;;;;;;5073825;28;20907;-75
2021/08/13 06:06:04;;;;;;;19.57;16.70;;;21.70;84.50;;;;;;5073729;28;20484;-75
2021/08/13 06:08:30;;;;;;;17.57;15.60;;;21.70;84.10;;;;;;5073879;28;20444;-75
2021/08/13 06:10:57;;;;;;;25.27;17.00;;;21.70;84.50;;;;;;5073407;28;20495;-75
2021/08/13 06:13:24;;;;;;;22.13;17.97;;;21.80;84.90;;;;;;5073467;28;20518;-75
2021/08/13 06:15:51;;;;;;;20.20;18.10;;;21.80;84.40;;;;;;5073730;28;20441;-75
2021/08/13 06:18:18;;;;;;;23.97;20.67;;;21.80;84.90;;;;;;5073807;28;20448;-75
2021/08/13 06:20:44;;;;;;;21.37;19.07;;;21.80;85.10;;;;;;5073557;28;20467;-75
2021/08/13 06:23:12;;;;;;;21.20;19.10;;;21.80;84.90;;;;;;5073317;28;20452;-75
2021/08/13 06:25:39;;;;;;;22.93;20.13;;;21.90;84.90;;;;;;5073445;28;20483;-75
2021/08/13 06:28:06;;;;;;;24.13;19.60;;;21.90;84.90;;;;;;5073628;28;20425;-75
2021/08/13 06:30:33;;;;;;;24.60;22.10;;;22.00;85.10;;;;;;5073545;28;20448;-75
2021/08/13 06:33:00;;;;;;;24.80;22.20;;;22.00;84.20;;;;;;5073292;28;20436;-75
2021/08/13 06:35:27;;;;;;;26.83;22.30;;;22.00;83.90;;;;;;5073562;28;20444;-75
2021/08/13 06:37:56;;;;;;;23.87;21.43;;;21.90;83.90;;;;;;5073565;28;20492;-75
2021/08/13 06:40:24;;;;;;;25.90;22.40;;;21.90;83.90;;;;;;5073463;28;20445;-75
2021/08/13 06:42:52;;;;;;;34.40;24.60;;;21.90;84.10;;;;;;5073252;28;20439;-75
2021/08/13 06:45:20;;;;;;;24.43;22.10;;;21.80;84.40;;;;;;5073433;28;20535;-75
2021/08/13 06:47:47;;;;;;;28.23;25.37;;;21.90;84.60;;;;;;5073358;28;20472;-75
2021/08/13 06:50:15;;;;;;;29.27;26.23;;;21.90;84.00;;;;;;5074195;28;20455;-75
2021/08/13 06:52:42;;;;;;;29.37;26.37;;;22.00;84.20;;;;;;5073060;28;20444;-75
2021/08/13 06:55:10;;;;;;;29.33;26.43;;;22.10;84.30;;;;;;5073368;28;20424;-75
2021/08/13 06:57:39;;;;;;;31.20;28.00;;;22.20;84.70;;;;;;5073196;28;20468;-75
2021/08/13 07:00:09;;;;;;;31.80;28.60;;;22.30;83.50;;;;;;5073097;28;20441;-75
2021/08/13 07:02:35;;;;;;;31.60;28.30;;;22.30;83.40;;;;;;5073142;28;20449;-75
2021/08/13 07:05:03;;;;;;;32.80;29.60;;;22.40;82.80;;;;;;5076062;28;20805;-75
2021/08/13 07:07:31;;;;;;;35.37;31.87;;;22.40;83.10;;;;;;5076732;28;20472;-75
2021/08/13 07:09:57;;;;;;;36.87;32.97;;;22.50;83.00;;;;;;5076879;28;20429;-75
2021/08/13 07:12:24;;;;;;;42.00;34.83;;;22.50;83.10;;;;;;5074013;28;20962;-75
2021/08/13 07:14:52;;;;;;;37.17;33.27;;;22.60;82.50;;;;;;5073328;28;20452;-75
2021/08/13 07:17:19;;;;;;;34.87;31.27;;;22.60;82.40;;;;;;5073525;28;20563;-75
2021/08/13 07:19:46;;;;;;;36.00;32.50;;;22.60;82.50;;;;;;5073158;28;20444;-75
2021/08/13 07:22:12;;;;;;;38.37;31.90;;;22.60;82.70;;;;;;5072972;28;20807;-75
2021/08/13 07:24:39;;;;;;;38.30;34.17;;;22.70;82.20;;;;;;5081282;28;20814;-75
2021/08/13 07:27:06;;;;;;;41.13;32.80;;;22.70;81.90;;;;;;5081600;28;20495;-75
2021/08/13 07:29:33;;;;;;;39.43;33.60;;;22.80;82.20;;;;;;5081214;28;20428;-75
2021/08/13 07:32:01;;;;;;;40.07;34.60;;;22.90;82.00;;;;;;5078572;28;20447;-75
2021/08/13 07:34:27;;;;;;;37.80;33.73;;;23.00;81.30;;;;;;5079485;28;20939;-74
2021/08/13 07:36:54;;;;;;;39.10;34.00;;;23.10;80.60;;;;;;5076753;28;20468;-74
2021/08/13 07:39:21;;;;;;;37.13;33.23;;;23.30;81.20;;;;;;5077526;28;20440;-74
2021/08/13 07:41:47;;;;;;;35.03;31.40;;;23.40;80.20;;;;;;5077271;28;20444;-76
2021/08/13 07:44:14;;;;;;;33.20;29.60;;;23.50;78.70;;;;;;5078642;28;20432;-75
2021/08/13 07:46:41;;;;;;;33.33;29.30;;;23.60;78.40;;;;;;5078533;28;20537;-75
2021/08/13 07:49:09;;;;;;;31.07;27.97;;;23.60;77.00;;;;;;5079817;28;20429;-75
2021/08/13 07:51:36;;;;;;;30.43;27.23;;;23.60;76.50;;;;;;5080133;28;20428;-75
2021/08/13 07:54:02;;;;;;;30.70;27.43;;;23.60;76.90;;;;;;5079664;28;20440;-75
2021/08/13 07:56:29;;;;;;;29.00;25.90;;;23.70;76.30;;;;;;5078009;28;20468;-75
2021/08/13 07:58:56;;;;;;;29.83;26.10;;;23.70;75.20;;;;;;5080204;28;20436;-75
2021/08/13 08:01:22;;;;;;;28.10;25.10;;;23.70;75.70;;;;;;5079446;28;20447;-75
2021/08/13 08:03:49;;;;;;;28.47;25.47;;;23.70;76.00;;;;;;5077793;28;20445;-75
2021/08/13 08:06:17;;;;;;;30.50;27.30;;;23.70;76.40;;;;;;5076427;28;20480;-75
2021/08/13 08:08:44;;;;;;;30.03;26.83;;;23.70;76.20;;;;;;5076142;28;20437;-76
2021/08/13 08:11:10;;;;;;;30.63;27.40;;;23.70;75.70;;;;;;5076109;28;20794;-74
2021/08/13 08:13:37;;;;;;;26.90;24.27;;;23.70;75.70;;;;;;5076043;28;20448;-76
2021/08/13 08:16:04;;;;;;;23.03;20.60;;;23.70;75.90;;;;;;5075888;28;20821;-76
2021/08/13 08:18:31;;;;;;;23.90;21.17;;;23.60;75.60;;;;;;5075645;28;20927;-76
2021/08/13 08:20:58;;;;;;;23.83;21.30;;;23.60;76.00;;;;;;5075944;28;20432;-76
2021/08/13 08:23:26;;;;;;;25.90;20.60;;;23.70;74.60;;;;;;5075439;28;20475;-75
2021/08/13 08:25:53;;;;;;;27.50;19.97;;;23.80;73.90;;;;;;5075681;28;20485;-76
2021/08/13 08:28:19;;;;;;;20.10;17.37;;;23.80;72.80;;;;;;5075755;28;20445;-75
2021/08/13 08:30:46;;;;;;;18.90;17.17;;;23.90;72.70;;;;;;5075683;28;20447;-74
2021/08/13 08:33:14;;;;;;;18.70;16.50;;;23.80;72.30;;;;;;5075646;28;20440;-74
2021/08/13 08:35:41;;;;;;;22.00;17.80;;;23.90;71.90;;;;;;5074760;28;20479;-76
2021/08/13 08:38:08;;;;;;;19.90;17.50;;;24.00;72.10;;;;;;5075555;28;20445;-74
2021/08/13 08:40:38;;;;;;;19.90;17.90;;;24.00;72.70;;;;;;5075510;28;20443;-75
2021/08/13 08:43:07;;;;;;;18.00;16.30;;;24.20;72.50;;;;;;5075428;28;20429;-74
2021/08/13 08:45:35;;;;;;;17.03;14.93;;;24.30;70.60;;;;;;5075345;28;20802;-75
2021/08/13 08:48:04;;;;;;;15.63;13.93;;;24.50;70.80;;;;;;5075352;28;20449;-75
2021/08/13 08:50:34;;;;;;;14.70;13.30;;;24.60;69.80;;;;;;5074970;28;20949;-75
2021/08/13 08:53:03;;;;;;;14.63;13.13;;;24.70;67.40;;;;;;5075329;28;20444;-75
2021/08/13 08:55:30;;;;;;;13.60;12.20;;;24.70;68.30;;;;;;5075208;28;20432;-75
2021/08/13 08:57:59;;;;;;;13.43;12.03;;;24.80;67.50;;;;;;5075085;28;20548;-74
2021/08/13 09:00:26;;;;;;;14.20;12.60;;;24.90;67.70;;;;;;5073539;28;20441;-74
2021/08/13 09:02:55;;;;;;;14.10;12.60;;;24.80;65.90;;;;;;5074910;28;20452;-74
2021/08/13 09:05:22;;;;;;;12.03;10.90;;;25.00;67.10;;;;;;5074731;28;20859;-76
2021/08/13 09:07:49;;;;;;;9.80;8.90;;;25.10;66.10;;;;;;5074780;28;20487;-74
2021/08/13 09:10:16;;;;;;;9.40;8.60;;;25.30;65.70;;;;;;5074901;28;20452;-75
2021/08/13 09:12:43;;;;;;;9.70;7.70;;;25.50;63.50;;;;;;5074839;28;20444;-76
2021/08/13 09:15:27;;;;;;;6.50;5.90;;;25.70;61.90;;;;;;5074467;28;20951;-76
2021/08/13 09:18:11;;;;;;;11.90;7.53;;;26.00;61.80;;;;;;5074413;28;20464;-76
2021/08/13 09:20:38;;;;;;;9.10;8.30;;;26.20;60.20;;;;;;5074707;28;20429;-75
2021/08/13 09:23:05;;;;;;;7.07;6.20;;;26.40;59.80;;;;;;5074375;28;20455;-74
2021/08/13 09:25:32;;;;;;;7.20;6.50;;;26.60;59.40;;;;;;5074588;28;20444;-75
2021/08/13 09:27:59;;;;;;;7.97;7.27;;;26.90;58.30;;;;;;5074444;28;20488;-74
2021/08/13 09:30:28;;;;;;;7.63;6.90;;;27.00;56.30;;;;;;5074503;28;20445;-74
2021/08/13 09:32:57;;;;;;;8.60;7.13;;;27.30;56.90;;;;;;5074588;28;20444;-75
2021/08/13 09:35:35;;;;;;;7.87;7.10;;;27.50;56.30;;;;;;5074585;28;20502;-74
2021/08/13 09:38:04;;;;;;;7.93;7.17;;;27.60;55.40;;;;;;5074351;28;20468;-74
2021/08/13 09:40:37;;;;;;;7.07;6.43;;;27.90;56.10;;;;;;5074390;28;20444;-76
2021/08/13 09:43:04;;;;;;;6.17;5.57;;;28.10;55.50;;;;;;5074465;28;20425;-76
2021/08/13 09:45:33;;;;;;;8.33;5.13;;;28.20;53.80;;;;;;5074191;28;20464;-76
2021/08/13 09:47:59;;;;;;;5.20;4.70;;;28.20;53.30;;;;;;5074082;28;20550;-76
2021/08/13 09:50:37;;;;;;;5.40;4.43;;;28.30;53.30;;;;;;5074279;28;20451;-76
2021/08/13 09:53:08;;;;;;;3.83;3.20;;;28.40;52.90;;;;;;5074289;28;20833;-76
2021/08/13 09:55:35;;;;;;;4.40;4.03;;;28.60;52.90;;;;;;5074107;28;20447;-74
2021/08/13 09:58:03;;;;;;;5.27;4.27;;;28.80;52.10;;;;;;5073960;28;20466;-76
2021/08/13 10:00:30;;;;;;;7.80;3.73;;;28.90;51.70;;;;;;5073964;28;20440;-76
2021/08/13 10:03:05;;;;;;;5.80;4.10;;;29.10;51.80;;;;;;5074229;28;20445;-75
2021/08/13 10:05:32;;;;;;;8.60;4.10;;;29.30;50.90;;;;;;5073936;28;20429;-75
2021/08/13 10:08:01;;;;;;;4.37;3.70;;;29.60;50.30;;;;;;5073688;28;20534;-76
2021/08/13 10:10:30;;;;;;;5.40;4.40;;;29.70;48.50;;;;;;5073838;28;20443;-76
2021/08/13 10:12:58;;;;;;;3.83;3.50;;;29.90;49.30;;;;;;5073777;28;20857;-75
2021/08/13 10:15:34;;;;;;;3.27;3.00;;;30.10;48.80;;;;;;5073795;28;20499;-76
2021/08/13 10:18:04;;;;;;;5.07;3.90;;;30.20;47.00;;;;;;5073834;28;20869;-76
2021/08/13 10:20:34;;;;;;;3.20;2.90;;;30.10;46.60;;;;;;5073866;28;20433;-76
2021/08/13 10:23:02;;;;;;;3.53;3.23;;;30.20;45.30;;;;;;5073362;28;20827;-76
2021/08/13 10:25:28;;;;;;;2.90;2.70;;;30.30;44.30;;;;;;5073629;28;20451;-76
2021/08/13 10:27:56;;;;;;;6.60;3.20;;;30.20;45.90;;;;;;5073256;28;20986;-76
2021/08/13 10:30:24;;;;;;;4.60;2.83;;;30.20;46.90;;;;;;5073638;28;20448;-76
2021/08/13 10:32:56;;;;;;;5.20;2.97;;;30.30;46.00;;;;;;5073693;28;20810;-76
2021/08/13 10:35:28;;;;;;;3.40;2.80;;;30.60;45.60;;;;;;5073619;28;20451;-75
2021/08/13 10:37:57;;;;;;;2.87;2.33;;;30.90;45.50;;;;;;5073494;28;20912;-75
2021/08/13 10:40:24;;;;;;;4.57;2.40;;;30.90;45.10;;;;;;5073514;28;20451;-75
2021/08/13 10:42:52;;;;;;;2.67;2.47;;;30.90;45.30;;;;;;5073431;28;20440;-75
2021/08/13 10:45:23;;;;;;;2.20;1.90;;;30.90;45.00;;;;;;5073571;28;20443;-75
2021/08/13 10:47:55;;;;;;;2.10;1.90;;;31.10;45.30;;;;;;5073680;28;20491;-75
2021/08/13 10:50:24;;;;;;;2.80;2.30;;;31.70;45.00;;;;;;5074091;28;20482;-75
2021/08/13 10:52:51;;;;;;;2.47;2.30;;;31.80;43.10;;;;;;5073290;28;20437;-76
2021/08/13 10:55:40;;;;;;;2.93;2.47;;;32.00;42.70;;;;;;5073351;28;20455;-75
2021/08/13 10:58:07;;;;;;;6.17;2.30;;;32.50;42.30;;;;;;5074878;28;20447;-76
2021/08/13 11:01:06;;;;;;;3.83;2.60;;;33.30;40.90;;;;;;5077233;28;20795;-77
2021/08/13 11:03:33;;;;;;;5.03;2.30;;;33.90;37.90;;;;;;5077499;28;20443;-76
2021/08/13 11:06:02;;;;;;;4.93;2.50;;;34.60;37.80;;;;;;5077116;28;20456;-76
2021/08/13 11:09:00;;;;;;;5.10;2.97;;;34.90;35.90;;;;;;5076859;28;21017;-76
2021/08/13 11:11:28;;;;;;;7.73;3.23;;;34.70;36.30;;;;;;5076682;28;20468;-76
2021/08/13 11:13:55;;;;;;;2.80;2.27;;;34.30;36.70;;;;;;5077618;28;20801;-76
2021/08/13 11:16:38;;;;;;;3.47;2.20;;;34.00;36.70;;;;;;5077065;28;20460;-76
2021/08/13 11:19:09;;;;;;;2.17;2.07;;;34.00;37.20;;;;;;5077459;28;20428;-75
2021/08/13 11:21:44;;;;;;;3.30;2.27;;;34.40;37.50;;;;;;5077730;28;20424;-76
2021/08/13 11:24:12;;;;;;;2.40;1.83;;;34.90;35.00;;;;;;5076656;28;20773;-76
2021/08/13 11:27:10;;;;;;;4.60;2.37;;;34.70;34.50;;;;;;5076611;28;20483;-76
2021/08/13 11:29:45;;;;;;;4.30;2.60;;;34.50;36.50;;;;;;5076657;28;20444;-75
2021/08/13 11:32:30;;;;;;;3.10;2.63;;;34.40;35.80;;;;;;5076838;28;20440;-75
2021/08/13 11:35:01;;;;;;;3.03;2.03;;;34.70;35.70;;;;;;5076804;28;20435;-75
2021/08/13 11:37:53;;;;;;;5.07;2.40;;;34.60;35.00;;;;;;5076607;28;20464;-75
2021/08/13 11:40:48;;;;;;;6.07;2.90;;;34.50;35.80;;;;;;5076609;28;20487;-76
2021/08/13 11:43:16;;;;;;;6.63;1.90;;;34.40;35.00;;;;;;5076642;28;20478;-75
2021/08/13 11:45:46;;;;;;;3.90;2.53;;;33.70;35.70;;;;;;5076461;28;20443;-76
2021/08/13 11:48:14;;;;;;;2.20;2.00;;;33.50;36.40;;;;;;5076160;28;20472;-76
2021/08/13 11:50:41;;;;;;;3.40;2.47;;;33.20;36.50;;;;;;5076238;28;20444;-76
2021/08/13 11:53:10;;;;;;;2.70;2.30;;;33.10;38.00;;;;;;5076028;28;20894;-75
2021/08/13 11:55:37;;;;;;;3.57;3.27;;;33.50;39.10;;;;;;5076352;28;20443;-75
2021/08/13 11:58:06;;;;;;;3.37;2.40;;;34.40;38.40;;;;;;5076274;28;20475;-75
2021/08/13 12:00:35;;;;;;;4.17;2.47;;;34.80;36.00;;;;;;5076283;28;20440;-75
2021/08/13 12:03:04;;;;;;;2.93;2.70;;;35.20;35.00;;;;;;5076368;28;20435;-75
2021/08/13 12:05:32;;;;;;;3.73;2.47;;;35.60;34.40;;;;;;5076187;28;20439;-75
2021/08/13 12:08:00;;;;;;;3.13;2.20;;;36.10;33.70;;;;;;5075846;28;20502;-76
2021/08/13 12:10:30;;;;;;;2.50;2.20;;;36.60;33.80;;;;;;5074900;28;20440;-76
2021/08/13 12:12:57;;;;;;;5.00;2.90;;;36.80;30.20;;;;;;5076042;28;20448;-76
2021/08/13 12:15:32;;;;;;;3.43;2.77;;;36.80;31.80;;;;;;5076010;28;20490;-76
2021/08/13 12:18:00;;;;;;;3.57;2.43;;;36.60;31.70;;;;;;5077021;28;20221;-75
2021/08/13 12:20:28;;;;;;;5.47;2.70;;;35.80;32.20;;;;;;5075903;28;20452;-76
2021/08/13 12:23:01;;;;;;;4.37;2.50;;;35.00;33.30;;;;;;5075414;28;20543;-75
2021/08/13 12:25:34;;;;;;;3.03;2.50;;;34.70;35.20;;;;;;5075777;28;20447;-75
2021/08/13 12:28:01;;;;;;;3.50;2.43;;;34.70;35.10;;;;;;5075407;28;20881;-75
2021/08/13 12:30:28;;;;;;;2.60;2.40;;;34.80;34.70;;;;;;5075740;28;20499;-76
2021/08/13 12:32:57;;;;;;;2.43;2.20;;;35.20;34.80;;;;;;5075358;28;20930;-76
2021/08/13 12:35:25;;;;;;;3.03;2.80;;;35.70;34.50;;;;;;5075610;28;20855;-77
2021/08/13 12:37:55;;;;;;;3.13;2.87;;;35.80;34.10;;;;;;5075490;28;20460;-76
2021/08/13 12:40:22;;;;;;;4.47;3.50;;;36.00;34.00;;;;;;5075220;28;20451;-76
2021/08/13 12:42:52;;;;;;;3.90;3.50;;;36.30;33.60;;;;;;5075453;28;20444;-76